Time;durP1;ratioP1;P1;durP2;ratioP2;P2;SDS_P1;SDS_P2;PMS_P1;PMS_P2;Temp;Humidity;BMP_temperature;BMP_pressure;BME280_temperature;BME280_humidity;BME280_pressure;Samples;Min_cycle;Max_cycle;Signal;HPM_P1;HPM_P2
2021/11/29 00:01:33;;;;;;;21.03;15.50;;;;;;;;;;5060426;28;20637;-86
2021/11/29 00:04:37;;;;;;;20.43;14.43;;;;;;;;;;5072590;28;20887;-86
2021/11/29 00:07:41;;;;;;;21.40;14.83;;;;;;;;;;5029989;28;20535;-84
2021/11/29 00:10:46;;;;;;;22.37;15.93;;;;;;;;;;5018278;28;21017;-84
2021/11/29 00:13:50;;;;;;;23.17;15.63;;;;;;;;;;5041118;28;20547;-84
2021/11/29 00:16:54;;;;;;;22.80;15.87;;;;;;;;;;5041192;28;21196;-84
2021/11/29 00:19:59;;;;;;;27.27;16.33;;;;;;;;;;5037626;28;20652;-84
2021/11/29 00:23:03;;;;;;;22.57;15.23;;;;;;;;;;5052483;28;20621;-84
2021/11/29 00:26:07;;;;;;;22.63;15.77;;;;;;;;;;5042143;28;21145;-84
2021/11/29 00:29:11;;;;;;;21.93;14.93;;;;;;;;;;5045376;28;20622;-84
2021/11/29 00:32:15;;;;;;;21.53;14.50;;;;;;;;;;5030201;28;20599;-84
2021/11/29 00:35:19;;;;;;;20.60;15.20;;;;;;;;;;5062529;28;20629;-84
2021/11/29 00:38:23;;;;;;;22.67;15.37;;;;;;;;;;5033381;28;20943;-84
2021/11/29 00:41:27;;;;;;;20.83;14.83;;;;;;;;;;5033242;28;20630;-84
2021/11/29 00:44:32;;;;;;;21.37;13.90;;;;;;;;;;5048629;28;20621;-84
2021/11/29 00:47:36;;;;;;;18.60;13.67;;;;;;;;;;5053336;28;20538;-84
2021/11/29 00:50:41;;;;;;;17.53;13.37;;;;;;;;;;5041445;28;20629;-85
2021/11/29 00:53:47;;;;;;;19.53;13.60;;;;;;;;;;5037246;28;20594;-84
2021/11/29 00:56:51;;;;;;;18.87;13.17;;;;;;;;;;5047408;28;20583;-85
2021/11/29 00:59:55;;;;;;;19.90;13.60;;;;;;;;;;5022184;28;20652;-84
2021/11/29 01:02:59;;;;;;;18.97;13.30;;;;;;;;;;5021691;28;20602;-84
2021/11/29 01:06:03;;;;;;;18.93;13.40;;;;;;;;;;5021893;28;20598;-84
2021/11/29 01:09:07;;;;;;;18.90;13.37;;;;;;;;;;5033185;28;20539;-84
2021/11/29 01:12:11;;;;;;;15.53;12.20;;;;;;;;;;5033084;28;20594;-84
2021/11/29 01:15:19;;;;;;;17.63;13.00;;;;;;;;;;5028930;28;20630;-84
2021/11/29 01:18:23;;;;;;;16.77;12.20;;;;;;;;;;5021524;28;20551;-84
2021/11/29 01:21:28;;;;;;;17.47;12.10;;;;;;;;;;5032456;28;20626;-84
2021/11/29 01:24:33;;;;;;;18.10;13.03;;;;;;;;;;5043980;28;20590;-84
2021/11/29 01:27:37;;;;;;;17.90;12.20;;;;;;;;;;5021277;28;20554;-84
2021/11/29 01:30:42;;;;;;;19.03;12.63;;;;;;;;;;5029460;28;20650;-84
2021/11/29 01:33:46;;;;;;;17.17;12.67;;;;;;;;;;5044053;28;20964;-84
2021/11/29 01:36:50;;;;;;;18.73;12.87;;;;;;;;;;5032644;28;20590;-84
2021/11/29 01:39:54;;;;;;;18.17;13.10;;;;;;;;;;5031194;28;20640;-84
2021/11/29 01:43:09;;;;;;;19.80;13.13;;;;;;;;;;5040772;28;20601;-84
2021/11/29 01:46:16;;;;;;;19.77;13.17;;;;;;;;;;5043830;28;20602;-84
2021/11/29 01:49:21;;;;;;;17.27;12.60;;;;;;;;;;5032226;28;20565;-84
2021/11/29 01:52:25;;;;;;;19.07;13.00;;;;;;;;;;5021248;28;20964;-84
2021/11/29 01:55:29;;;;;;;15.27;11.90;;;;;;;;;;5030518;28;20959;-84
2021/11/29 01:58:36;;;;;;;16.33;12.33;;;;;;;;;;5043388;28;20602;-84
2021/11/29 02:01:41;;;;;;;17.17;11.83;;;;;;;;;;5034492;28;20594;-84
2021/11/29 02:04:46;;;;;;;16.83;11.93;;;;;;;;;;5047603;28;20595;-84
2021/11/29 02:07:50;;;;;;;17.53;12.80;;;;;;;;;;5032136;28;20536;-84
2021/11/29 02:10:54;;;;;;;16.47;12.50;;;;;;;;;;5031528;28;20630;-84
2021/11/29 02:14:00;;;;;;;17.60;12.30;;;;;;;;;;5021314;28;20614;-84
2021/11/29 02:17:06;;;;;;;17.87;12.47;;;;;;;;;;5031469;28;20637;-84
2021/11/29 02:20:11;;;;;;;18.53;12.33;;;;;;;;;;5034283;28;20642;-85
2021/11/29 02:23:15;;;;;;;14.77;11.17;;;;;;;;;;5031481;28;21260;-85
2021/11/29 02:26:22;;;;;;;18.87;12.60;;;;;;;;;;5020545;28;20555;-84
2021/11/29 02:29:26;;;;;;;17.27;11.43;;;;;;;;;;5031674;28;20543;-84
2021/11/29 02:32:30;;;;;;;16.40;11.57;;;;;;;;;;5027167;28;20582;-84
2021/11/29 02:35:34;;;;;;;16.23;11.40;;;;;;;;;;5031362;28;20587;-84
2021/11/29 02:38:39;;;;;;;16.00;11.30;;;;;;;;;;5031547;28;20554;-84
2021/11/29 02:41:46;;;;;;;16.03;12.17;;;;;;;;;;5031815;28;20539;-84
2021/11/29 02:44:51;;;;;;;16.97;12.63;;;;;;;;;;5050037;28;20998;-84
2021/11/29 02:47:55;;;;;;;18.40;12.70;;;;;;;;;;5031317;28;20586;-84
2021/11/29 02:50:59;;;;;;;17.10;12.77;;;;;;;;;;5042286;28;20622;-84
2021/11/29 02:54:11;;;;;;;16.90;12.37;;;;;;;;;;5042558;28;20586;-84
2021/11/29 02:57:21;;;;;;;18.50;12.53;;;;;;;;;;5031193;28;20607;-84
2021/11/29 03:00:25;;;;;;;16.80;11.73;;;;;;;;;;5042657;28;20651;-84
2021/11/29 03:03:29;;;;;;;17.73;12.80;;;;;;;;;;5038508;28;20617;-84
2021/11/29 03:06:33;;;;;;;18.80;12.43;;;;;;;;;;5050977;28;20538;-84
2021/11/29 03:09:38;;;;;;;18.93;13.03;;;;;;;;;;5050292;28;20640;-85
2021/11/29 03:12:42;;;;;;;18.40;13.20;;;;;;;;;;5032348;28;20595;-85
2021/11/29 03:15:48;;;;;;;17.33;13.40;;;;;;;;;;5039288;28;20590;-84
2021/11/29 03:18:52;;;;;;;21.53;14.90;;;;;;;;;;5050348;28;20549;-84
2021/11/29 03:21:56;;;;;;;19.77;13.43;;;;;;;;;;5050467;28;20538;-84
2021/11/29 03:25:00;;;;;;;22.70;14.33;;;;;;;;;;5041571;28;20582;-84
2021/11/29 03:28:04;;;;;;;17.70;12.97;;;;;;;;;;5034696;28;21190;-84
2021/11/29 03:31:10;;;;;;;17.47;13.60;;;;;;;;;;5030299;28;21208;-84
2021/11/29 03:34:15;;;;;;;20.50;13.60;;;;;;;;;;5025285;28;20599;-84
2021/11/29 03:37:19;;;;;;;19.87;13.67;;;;;;;;;;5030309;28;20591;-84
2021/11/29 03:40:23;;;;;;;19.40;13.20;;;;;;;;;;5019022;28;20617;-85
2021/11/29 03:43:27;;;;;;;19.30;13.50;;;;;;;;;;5030332;28;20578;-84
2021/11/29 03:46:32;;;;;;;21.20;13.87;;;;;;;;;;5030392;28;20911;-84
2021/11/29 03:49:36;;;;;;;18.63;13.83;;;;;;;;;;5030024;28;20618;-84
2021/11/29 03:52:40;;;;;;;19.17;13.00;;;;;;;;;;5044101;28;20621;-84
2021/11/29 03:55:44;;;;;;;21.03;14.87;;;;;;;;;;5070433;28;20657;-85
2021/11/29 03:58:48;;;;;;;24.33;14.43;;;;;;;;;;5049858;28;20602;-84
2021/11/29 04:01:52;;;;;;;19.97;13.93;;;;;;;;;;5061016;28;20597;-85
2021/11/29 04:04:56;;;;;;;23.10;14.27;;;;;;;;;;5041337;28;20574;-84
2021/11/29 04:08:00;;;;;;;21.00;13.50;;;;;;;;;;5029867;28;20536;-84
2021/11/29 04:11:05;;;;;;;20.87;14.17;;;;;;;;;;5048258;23;21252;-89
2021/11/29 04:14:10;;;;;;;19.60;14.27;;;;;;;;;;5029652;28;20603;-89
2021/11/29 04:17:14;;;;;;;22.23;14.30;;;;;;;;;;5009621;28;20658;-89
2021/11/29 04:20:19;;;;;;;20.97;14.23;;;;;;;;;;5006043;28;20629;-89
2021/11/29 04:23:23;;;;;;;19.47;13.67;;;;;;;;;;5030023;28;20587;-89
2021/11/29 04:26:29;;;;;;;20.27;13.53;;;;;;;;;;5042443;28;20601;-90
2021/11/29 04:29:38;;;;;;;19.37;13.03;;;;;;;;;;5038181;28;20621;-90
2021/11/29 04:32:44;;;;;;;20.97;13.80;;;;;;;;;;5061094;28;20597;-90
2021/11/29 04:35:48;;;;;;;19.70;13.37;;;;;;;;;;5038248;28;20661;-89
2021/11/29 04:38:53;;;;;;;20.00;13.80;;;;;;;;;;5038256;28;20542;-89
2021/11/29 04:41:57;;;;;;;18.77;13.80;;;;;;;;;;5018560;28;20535;-89
2021/11/29 04:45:05;;;;;;;20.73;14.40;;;;;;;;;;5029754;28;20539;-89
2021/11/29 04:48:10;;;;;;;21.60;14.37;;;;;;;;;;5018678;28;20591;-89
2021/11/29 04:51:14;;;;;;;19.90;14.67;;;;;;;;;;5030021;28;20642;-89
2021/11/29 04:54:18;;;;;;;19.20;12.40;;;;;;;;;;5018742;28;21162;-89
2021/11/29 04:57:22;;;;;;;18.30;13.60;;;;;;;;;;5020297;28;20595;-89
2021/11/29 05:00:26;;;;;;;19.80;13.87;;;;;;;;;;5049872;28;20993;-89
2021/11/29 05:03:31;;;;;;;21.63;13.30;;;;;;;;;;5039906;28;20590;-89
2021/11/29 05:06:37;;;;;;;18.13;13.17;;;;;;;;;;5041218;28;20545;-91
2021/11/29 05:09:42;;;;;;;19.43;13.60;;;;;;;;;;5033836;28;20535;-91
2021/11/29 05:12:46;;;;;;;19.50;13.53;;;;;;;;;;5021957;28;20566;-91
2021/11/29 05:15:50;;;;;;;20.50;14.07;;;;;;;;;;5033381;28;20548;-90
2021/11/29 05:18:55;;;;;;;20.97;13.83;;;;;;;;;;5046798;28;20598;-90
2021/11/29 05:21:59;;;;;;;22.17;14.57;;;;;;;;;;5041607;28;20546;-90
2021/11/29 05:25:04;;;;;;;22.53;14.63;;;;;;;;;;5052995;28;20542;-91
2021/11/29 05:28:09;;;;;;;25.23;15.10;;;;;;;;;;5045242;28;20586;-91
2021/11/29 05:31:13;;;;;;;20.30;14.27;;;;;;;;;;5021807;28;20647;-89
2021/11/29 05:34:18;;;;;;;20.53;14.47;;;;;;;;;;5032931;28;20587;-89
2021/11/29 05:37:23;;;;;;;20.97;14.13;;;;;;;;;;5021402;28;20595;-90
2021/11/29 05:40:27;;;;;;;24.83;14.47;;;;;;;;;;5021681;28;20629;-89
2021/11/29 05:43:31;;;;;;;19.30;14.17;;;;;;;;;;5021439;28;20602;-90
2021/11/29 05:46:36;;;;;;;23.47;14.27;;;;;;;;;;5032413;28;20606;-89
2021/11/29 05:49:40;;;;;;;20.77;13.97;;;;;;;;;;5032036;28;20583;-89
2021/11/29 05:52:45;;;;;;;21.23;14.40;;;;;;;;;;5021767;28;20550;-91
2021/11/29 05:55:49;;;;;;;22.80;14.60;;;;;;;;;;5032674;28;20543;-90
2021/11/29 05:58:53;;;;;;;21.20;14.77;;;;;;;;;;5043928;28;21149;-89
2021/11/29 06:01:57;;;;;;;23.20;14.57;;;;;;;;;;5040518;28;20599;-88
2021/11/29 06:05:01;;;;;;;21.77;14.77;;;;;;;;;;5052260;28;20899;-89
2021/11/29 06:08:05;;;;;;;23.30;14.67;;;;;;;;;;5045931;28;20594;-89
2021/11/29 06:11:10;;;;;;;24.90;15.70;;;;;;;;;;5031866;28;20657;-89
2021/11/29 06:14:14;;;;;;;23.07;15.07;;;;;;;;;;5031963;28;20598;-90
2021/11/29 06:17:18;;;;;;;22.37;13.87;;;;;;;;;;5028792;28;20655;-89
2021/11/29 06:20:24;;;;;;;23.47;14.47;;;;;;;;;;5019867;28;20633;-88
2021/11/29 06:23:38;;;;;;;24.67;14.83;;;;;;;;;;5021241;28;20531;-88
2021/11/29 06:26:44;;;;;;;21.90;14.20;;;;;;;;;;5029551;28;20603;-88
2021/11/29 06:29:52;;;;;;;22.03;15.03;;;;;;;;;;5031500;28;20631;-88
2021/11/29 06:33:07;;;;;;;22.70;14.17;;;;;;;;;;5010488;28;20618;-87
2021/11/29 06:36:15;;;;;;;20.27;14.10;;;;;;;;;;5046424;28;20598;-86
2021/11/29 06:39:22;;;;;;;20.37;13.53;;;;;;;;;;5048288;28;21173;-86
2021/11/29 06:42:27;;;;;;;21.27;14.03;;;;;;;;;;5031785;28;20547;-86
2021/11/29 06:45:31;;;;;;;22.67;14.50;;;;;;;;;;5045583;28;20567;-85
2021/11/29 06:48:35;;;;;;;21.10;14.40;;;;;;;;;;5052490;28;20555;-87
2021/11/29 06:51:39;;;;;;;23.50;14.73;;;;;;;;;;5041531;28;20742;-86
2021/11/29 06:54:47;;;;;;;22.27;14.20;;;;;;;;;;5033021;28;20903;-86
2021/11/29 06:57:51;;;;;;;20.57;14.17;;;;;;;;;;5036862;28;20635;-84
2021/11/29 07:00:55;;;;;;;22.90;14.90;;;;;;;;;;5031990;28;20634;-84
2021/11/29 07:04:28;;;;;;;20.40;13.80;;;;;;;;;;5020939;28;20563;-91
2021/11/29 07:07:33;;;;;;;23.10;15.00;;;;;;;;;;5039132;28;20586;-84
2021/11/29 07:10:40;;;;;;;22.00;14.13;;;;;;;;;;5039444;28;21236;-84
2021/11/29 07:13:45;;;;;;;21.13;13.23;;;;;;;;;;5040034;28;20547;-84
2021/11/29 07:16:49;;;;;;;22.27;14.20;;;;;;;;;;5051097;28;20597;-84
2021/11/29 07:19:53;;;;;;;21.87;14.77;;;;;;;;;;5039594;28;20613;-84
2021/11/29 07:22:58;;;;;;;21.87;13.77;;;;;;;;;;5041044;28;20534;-84
2021/11/29 07:26:02;;;;;;;22.73;14.20;;;;;;;;;;5051401;28;20538;-84
2021/11/29 07:29:06;;;;;;;22.97;14.83;;;;;;;;;;5040145;28;20542;-84
2021/11/29 07:32:10;;;;;;;22.67;13.90;;;;;;;;;;5062529;28;20538;-84
2021/11/29 07:35:15;;;;;;;20.03;13.03;;;;;;;;;;5039772;28;20557;-84
2021/11/29 07:38:19;;;;;;;22.53;14.07;;;;;;;;;;5039898;28;20598;-84
2021/11/29 07:41:24;;;;;;;22.03;14.53;;;;;;;;;;5039309;28;20637;-84
2021/11/29 07:44:28;;;;;;;20.57;13.20;;;;;;;;;;5039265;28;20538;-84
2021/11/29 07:47:32;;;;;;;21.13;14.27;;;;;;;;;;5050718;28;21097;-84
2021/11/29 07:50:36;;;;;;;22.87;14.93;;;;;;;;;;5039172;28;21180;-84
2021/11/29 07:53:40;;;;;;;20.97;14.40;;;;;;;;;;5039383;28;20554;-84
2021/11/29 07:56:44;;;;;;;19.80;12.93;;;;;;;;;;5061930;28;20554;-84
2021/11/29 07:59:48;;;;;;;18.63;12.83;;;;;;;;;;5038908;28;20633;-84
2021/11/29 08:02:56;;;;;;;21.73;13.07;;;;;;;;;;5039433;28;21078;-84
2021/11/29 08:06:00;;;;;;;23.37;14.20;;;;;;;;;;5050208;28;20723;-84
2021/11/29 08:09:04;;;;;;;30.33;17.70;;;;;;;;;;5062026;28;20867;-83
2021/11/29 08:12:08;;;;;;;27.27;15.47;;;;;;;;;;5039250;28;20543;-84
2021/11/29 08:15:13;;;;;;;23.40;15.23;;;;;;;;;;5050392;28;21096;-84
2021/11/29 08:18:18;;;;;;;34.83;18.97;;;;;;;;;;5050180;28;20610;-84
2021/11/29 08:21:22;;;;;;;26.80;16.10;;;;;;;;;;5038685;28;20625;-84
2021/11/29 08:24:26;;;;;;;27.10;15.50;;;;;;;;;;5038733;28;20860;-84
2021/11/29 08:27:32;;;;;;;29.43;16.13;;;;;;;;;;5061624;28;20550;-84
2021/11/29 08:30:38;;;;;;;32.40;18.07;;;;;;;;;;5038661;28;20640;-84
2021/11/29 08:33:42;;;;;;;26.47;15.93;;;;;;;;;;5038906;28;20597;-84
2021/11/29 08:36:46;;;;;;;24.30;14.47;;;;;;;;;;5049842;28;20597;-83
2021/11/29 08:39:50;;;;;;;21.37;12.60;;;;;;;;;;5038839;28;21199;-84
2021/11/29 08:43:02;;;;;;;19.93;12.73;;;;;;;;;;5040177;28;21125;-85
2021/11/29 08:46:06;;;;;;;19.60;12.43;;;;;;;;;;5054248;28;20542;-84
2021/11/29 08:49:10;;;;;;;19.00;11.77;;;;;;;;;;5053679;28;20550;-84
2021/11/29 08:52:14;;;;;;;19.87;12.63;;;;;;;;;;5054536;28;20542;-84
2021/11/29 08:55:18;;;;;;;18.93;12.17;;;;;;;;;;5054616;28;20538;-84
2021/11/29 08:58:23;;;;;;;18.60;12.40;;;;;;;;;;5054777;28;20605;-85
2021/11/29 09:01:27;;;;;;;19.40;13.20;;;;;;;;;;5043611;28;20616;-84
2021/11/29 09:04:32;;;;;;;22.17;14.03;;;;;;;;;;5055085;28;20566;-84
2021/11/29 09:07:36;;;;;;;19.80;13.77;;;;;;;;;;5054943;28;20902;-84
2021/11/29 09:10:42;;;;;;;20.00;13.60;;;;;;;;;;5044402;28;20636;-84
2021/11/29 09:13:46;;;;;;;19.17;12.87;;;;;;;;;;5056952;28;20550;-84
2021/11/29 09:16:50;;;;;;;19.70;12.70;;;;;;;;;;5068284;28;21078;-84
2021/11/29 09:19:54;;;;;;;22.10;12.63;;;;;;;;;;5044217;28;20625;-84
2021/11/29 09:23:01;;;;;;;22.07;13.10;;;;;;;;;;5044190;28;20545;-84
2021/11/29 09:26:05;;;;;;;19.93;12.93;;;;;;;;;;5066975;28;20538;-85
2021/11/29 09:29:10;;;;;;;20.07;13.47;;;;;;;;;;5043869;28;20550;-84
2021/11/29 09:32:14;;;;;;;20.20;13.50;;;;;;;;;;5054537;28;21128;-84
2021/11/29 09:35:19;;;;;;;22.30;14.50;;;;;;;;;;5043206;28;20546;-84
2021/11/29 09:38:23;;;;;;;21.47;14.63;;;;;;;;;;5065618;28;21172;-84
2021/11/29 09:41:28;;;;;;;19.87;14.13;;;;;;;;;;5054043;28;20630;-83
2021/11/29 09:44:33;;;;;;;21.27;14.23;;;;;;;;;;5042506;28;20538;-84
2021/11/29 09:47:37;;;;;;;22.70;14.50;;;;;;;;;;5053836;28;20601;-84
2021/11/29 09:50:46;;;;;;;21.63;15.13;;;;;;;;;;5041833;28;20629;-84
2021/11/29 09:53:50;;;;;;;21.80;14.57;;;;;;;;;;5052484;28;20601;-84
2021/11/29 09:56:55;;;;;;;21.37;14.03;;;;;;;;;;5054565;28;20542;-84
2021/11/29 09:59:59;;;;;;;19.00;13.10;;;;;;;;;;5064626;28;20609;-84
2021/11/29 10:03:04;;;;;;;22.17;13.67;;;;;;;;;;5032321;28;20628;-83
2021/11/29 10:06:09;;;;;;;20.70;13.63;;;;;;;;;;5034895;28;20598;-84
2021/11/29 10:09:34;;;;;;;22.57;14.00;;;;;;;;;;5054853;28;20590;-84
2021/11/29 10:12:38;;;;;;;18.87;13.13;;;;;;;;;;5064575;23;20690;-85
2021/11/29 10:15:42;;;;;;;19.17;13.30;;;;;;;;;;5032978;28;20606;-85
2021/11/29 10:18:47;;;;;;;19.53;13.20;;;;;;;;;;5021864;28;20634;-85
2021/11/29 10:21:51;;;;;;;20.93;12.87;;;;;;;;;;5011937;28;20655;-85
2021/11/29 10:24:56;;;;;;;20.43;14.13;;;;;;;;;;5011908;28;20584;-84
2021/11/29 10:28:00;;;;;;;20.37;14.23;;;;;;;;;;5012681;28;20599;-84
2021/11/29 10:31:17;;;;;;;20.83;14.87;;;;;;;;;;5011989;28;20639;-84
2021/11/29 10:34:42;;;;;;;22.07;13.80;;;;;;;;;;5012928;28;21212;-84
2021/11/29 10:37:48;;;;;;;19.73;13.43;;;;;;;;;;5012816;28;20627;-85
2021/11/29 10:40:57;;;;;;;19.77;13.23;;;;;;;;;;5023354;28;20647;-84
2021/11/29 10:44:06;;;;;;;21.20;14.10;;;;;;;;;;5035470;28;20540;-84
2021/11/29 10:47:16;;;;;;;19.77;14.30;;;;;;;;;;5004317;28;20537;-84
2021/11/29 10:50:29;;;;;;;21.33;13.80;;;;;;;;;;4992968;28;20537;-84
2021/11/29 10:54:03;;;;;;;21.00;13.80;;;;;;;;;;5003891;28;20185;-84
2021/11/29 10:57:11;;;;;;;21.60;15.17;;;;;;;;;;5032598;28;20193;-85
2021/11/29 11:00:17;;;;;;;19.63;13.53;;;;;;;;;;5015729;28;21104;-84
2021/11/29 11:03:21;;;;;;;19.00;13.33;;;;;;;;;;5033775;28;20619;-85
2021/11/29 11:06:41;;;;;;;21.20;14.83;;;;;;;;;;5017530;28;20197;-85
2021/11/29 11:09:54;;;;;;;23.70;15.37;;;;;;;;;;5023526;28;20248;-85
2021/11/29 11:12:59;;;;;;;19.87;13.90;;;;;;;;;;5012496;28;20201;-85
2021/11/29 11:16:03;;;;;;;20.73;12.73;;;;;;;;;;5011903;28;20192;-87
2021/11/29 11:19:25;;;;;;;22.60;15.47;;;;;;;;;;5011557;28;20205;-85
2021/11/29 11:22:36;;;;;;;20.97;14.70;;;;;;;;;;5023272;28;20224;-84
2021/11/29 11:25:42;;;;;;;17.03;12.27;;;;;;;;;;5019348;28;20192;-84
2021/11/29 11:28:47;;;;;;;17.97;12.63;;;;;;;;;;5012235;28;20177;-84
2021/11/29 11:31:51;;;;;;;15.20;11.23;;;;;;;;;;5012391;28;20650;-84
2021/11/29 11:35:07;;;;;;;16.67;11.93;;;;;;;;;;5015446;28;20193;-84
2021/11/29 11:38:14;;;;;;;15.53;11.27;;;;;;;;;;5002328;28;20655;-84
2021/11/29 11:41:19;;;;;;;16.40;11.47;;;;;;;;;;5012939;28;20662;-84
2021/11/29 11:44:24;;;;;;;19.17;14.80;;;;;;;;;;5023262;28;20549;-84
2021/11/29 11:47:31;;;;;;;23.00;19.23;;;;;;;;;;5004446;28;20619;-84
2021/11/29 11:50:39;;;;;;;20.60;13.73;;;;;;;;;;5004835;28;20596;-84
2021/11/29 11:53:44;;;;;;;16.63;11.97;;;;;;;;;;5014845;28;20542;-85
2021/11/29 11:56:49;;;;;;;16.97;11.47;;;;;;;;;;5003066;28;20683;-84
2021/11/29 12:00:18;;;;;;;17.73;11.73;;;;;;;;;;5008808;28;20992;-84
2021/11/29 12:03:31;;;;;;;16.90;12.10;;;;;;;;;;5022923;28;20596;-85
2021/11/29 12:06:36;;;;;;;15.37;10.40;;;;;;;;;;4993283;28;20871;-84
2021/11/29 12:09:44;;;;;;;16.60;12.83;;;;;;;;;;5010423;28;20591;-84
2021/11/29 12:12:59;;;;;;;16.67;11.60;;;;;;;;;;5011757;28;20647;-84
2021/11/29 12:16:03;;;;;;;14.07;10.10;;;;;;;;;;5011928;28;20592;-84
2021/11/29 12:19:15;;;;;;;14.73;9.47;;;;;;;;;;5010367;28;21284;-85
2021/11/29 12:22:20;;;;;;;13.77;9.70;;;;;;;;;;5022989;28;20622;-84
2021/11/29 12:25:25;;;;;;;14.17;9.23;;;;;;;;;;5011511;28;20536;-83
2021/11/29 12:28:41;;;;;;;13.20;8.60;;;;;;;;;;5007212;28;20626;-85
2021/11/29 12:32:01;;;;;;;13.17;9.03;;;;;;;;;;5010740;28;21222;-84
2021/11/29 12:35:10;;;;;;;13.50;9.80;;;;;;;;;;5034387;28;20556;-84
2021/11/29 12:38:15;;;;;;;14.33;8.70;;;;;;;;;;5021553;28;20660;-84
2021/11/29 12:41:36;;;;;;;15.50;9.03;;;;;;;;;;5030708;28;20639;-84
2021/11/29 12:44:44;;;;;;;13.00;8.13;;;;;;;;;;5002149;28;20545;-85
2021/11/29 12:47:52;;;;;;;13.30;7.30;;;;;;;;;;5010096;28;20592;-85
2021/11/29 12:50:56;;;;;;;10.17;7.40;;;;;;;;;;5022222;28;20615;-84
2021/11/29 12:54:00;;;;;;;12.30;7.40;;;;;;;;;;4999582;28;20535;-85
2021/11/29 12:57:16;;;;;;;13.23;7.10;;;;;;;;;;5010889;28;20548;-85
2021/11/29 13:00:25;;;;;;;9.70;5.80;;;;;;;;;;5010130;28;20651;-85
2021/11/29 13:03:31;;;;;;;10.53;5.87;;;;;;;;;;5009881;28;20595;-85
2021/11/29 13:06:52;;;;;;;9.60;5.50;;;;;;;;;;5010228;28;20591;-85
2021/11/29 13:09:56;;;;;;;8.27;4.93;;;;;;;;;;5010893;28;20540;-85
2021/11/29 13:13:23;;;;;;;10.20;5.00;;;;;;;;;;4999680;28;21104;-85
2021/11/29 13:16:39;;;;;;;9.17;4.87;;;;;;;;;;5009959;28;20544;-85
2021/11/29 13:19:44;;;;;;;6.90;4.77;;;;;;;;;;5009850;28;20607;-85
2021/11/29 13:22:49;;;;;;;7.37;5.00;;;;;;;;;;5021007;28;20980;-85
2021/11/29 13:26:01;;;;;;;10.90;5.70;;;;;;;;;;5010180;28;20540;-85
2021/11/29 13:29:14;;;;;;;12.27;5.40;;;;;;;;;;5011539;28;20548;-84
2021/11/29 13:32:21;;;;;;;7.90;5.93;;;;;;;;;;5013438;28;21182;-85
2021/11/29 13:35:25;;;;;;;8.13;5.47;;;;;;;;;;5013100;28;20611;-85
2021/11/29 13:38:29;;;;;;;11.20;6.07;;;;;;;;;;5013333;28;20547;-84
2021/11/29 13:41:33;;;;;;;12.23;5.60;;;;;;;;;;5024517;28;20622;-84
2021/11/29 13:44:48;;;;;;;9.87;6.03;;;;;;;;;;5013639;28;20540;-84
2021/11/29 13:48:04;;;;;;;14.50;5.57;;;;;;;;;;5013216;28;20595;-83
2021/11/29 13:51:09;;;;;;;9.73;5.70;;;;;;;;;;5013159;28;20619;-84
2021/11/29 13:54:12;;;;;;;14.67;8.50;;;;;;;;;;5013213;28;20878;-84
2021/11/29 13:57:32;;;;;;;11.03;5.40;;;;;;;;;;5024422;28;20897;-84
2021/11/29 14:00:42;;;;;;;9.80;5.40;;;;;;;;;;5025935;28;20599;-84
2021/11/29 14:03:47;;;;;;;10.07;4.83;;;;;;;;;;5026756;28;20552;-84
2021/11/29 14:07:00;;;;;;;6.30;3.63;;;;;;;;;;5015675;28;20544;-85
2021/11/29 14:10:04;;;;;;;8.50;3.90;;;;;;;;;;5026848;28;20544;-85
2021/11/29 14:13:12;;;;;;;9.60;3.90;;;;;;;;;;5025354;28;21084;-85
2021/11/29 14:16:24;;;;;;;8.20;4.00;;;;;;;;;;5013838;28;20600;-85
2021/11/29 14:19:28;;;;;;;6.90;3.87;;;;;;;;;;5013266;28;20608;-84
2021/11/29 14:22:32;;;;;;;7.90;4.60;;;;;;;;;;5014172;28;20631;-84
2021/11/29 14:25:44;;;;;;;5.10;3.90;;;;;;;;;;5013607;28;20536;-84
2021/11/29 14:28:49;;;;;;;8.40;4.50;;;;;;;;;;5013676;28;20916;-84
2021/11/29 14:32:06;;;;;;;8.37;4.07;;;;;;;;;;5013108;28;20626;-84
2021/11/29 14:35:12;;;;;;;8.30;3.67;;;;;;;;;;5013150;28;20588;-84
2021/11/29 14:38:16;;;;;;;5.87;4.13;;;;;;;;;;5013467;28;20533;-84
2021/11/29 14:41:20;;;;;;;7.80;4.60;;;;;;;;;;5011775;28;20615;-84
2021/11/29 14:44:26;;;;;;;5.77;3.37;;;;;;;;;;5013281;28;20584;-84
2021/11/29 14:47:36;;;;;;;6.90;3.13;;;;;;;;;;5013058;28;20540;-85
2021/11/29 14:50:49;;;;;;;5.63;2.77;;;;;;;;;;5012781;28;20596;-84
2021/11/29 14:53:58;;;;;;;8.23;3.40;;;;;;;;;;5012932;28;20865;-85
2021/11/29 14:57:05;;;;;;;4.87;3.03;;;;;;;;;;5012647;28;20540;-84
2021/11/29 15:00:11;;;;;;;5.23;2.97;;;;;;;;;;5001374;28;21230;-85
2021/11/29 15:03:20;;;;;;;14.60;7.33;;;;;;;;;;5011965;28;20611;-84
2021/11/29 15:06:27;;;;;;;6.40;4.30;;;;;;;;;;5012455;28;20871;-84
2021/11/29 15:09:33;;;;;;;22.13;13.77;;;;;;;;;;5012289;28;20972;-85
2021/11/29 15:12:41;;;;;;;69.43;33.20;;;;;;;;;;5011888;28;20635;-85
2021/11/29 15:15:45;;;;;;;218.47;94.57;;;;;;;;;;5011751;28;20599;-85
2021/11/29 15:18:49;;;;;;;24.97;15.10;;;;;;;;;;5011845;28;20579;-85
2021/11/29 15:22:05;;;;;;;16.07;11.07;;;;;;;;;;5011883;28;21209;-85
2021/11/29 15:25:10;;;;;;;8.77;5.30;;;;;;;;;;5022561;28;20553;-85
2021/11/29 15:28:20;;;;;;;6.47;3.47;;;;;;;;;;5012308;28;20552;-85
2021/11/29 15:31:30;;;;;;;8.47;3.70;;;;;;;;;;5011310;28;20615;-85
2021/11/29 15:34:35;;;;;;;6.30;3.50;;;;;;;;;;5010199;28;20964;-85
2021/11/29 15:37:41;;;;;;;11.27;7.43;;;;;;;;;;5002410;28;20545;-86
2021/11/29 15:40:53;;;;;;;7.90;4.57;;;;;;;;;;5021414;28;20624;-86
2021/11/29 15:44:00;;;;;;;9.70;4.80;;;;;;;;;;5002779;28;20580;-87
2021/11/29 15:47:07;;;;;;;7.93;5.10;;;;;;;;;;5010940;28;20536;-87
2021/11/29 15:50:11;;;;;;;8.33;5.60;;;;;;;;;;5021342;28;20583;-86
2021/11/29 15:53:16;;;;;;;13.87;10.37;;;;;;;;;;5010438;28;20591;-87
2021/11/29 15:56:21;;;;;;;13.50;6.17;;;;;;;;;;5021427;28;20607;-87
2021/11/29 15:59:25;;;;;;;22.60;9.93;;;;;;;;;;5010129;28;20631;-87
2021/11/29 16:02:30;;;;;;;69.83;25.23;;;;;;;;;;5009825;28;20647;-87
2021/11/29 16:05:34;;;;;;;48.77;22.10;;;;;;;;;;5003836;28;21156;-86
2021/11/29 16:08:38;;;;;;;70.77;27.63;;;;;;;;;;4999665;28;20539;-87
2021/11/29 16:16:35;;;;;;;12.37;7.70;;;;;;;;;;5030174;28;20631;-87
2021/11/29 16:20:32;;;;;;;8.80;5.67;;;;;;;;;;4999150;28;20639;-88
2021/11/29 16:23:51;;;;;;;14.87;9.47;;;;;;;;;;4972764;28;20605;-88
2021/11/29 16:27:03;;;;;;;19.63;11.50;;;;;;;;;;4988569;28;21130;-88
2021/11/29 16:30:08;;;;;;;72.40;37.40;;;;;;;;;;5004140;28;20536;-88
2021/11/29 16:33:15;;;;;;;21.67;11.47;;;;;;;;;;5012867;23;20741;-73
2021/11/29 16:36:19;;;;;;;33.13;17.37;;;;;;;;;;5031963;28;20588;-73
2021/11/29 16:39:24;;;;;;;11.47;7.37;;;;;;;;;;5032290;28;20597;-73
2021/11/29 16:42:28;;;;;;;9.57;6.00;;;;;;;;;;5038331;28;20646;-71
2021/11/29 16:45:31;;;;;;;6.93;5.57;;;;;;;;;;5046092;28;20578;-72
2021/11/29 16:48:36;;;;;;;13.03;5.30;;;;;;;;;;5032381;28;21134;-73
2021/11/29 16:51:40;;;;;;;7.97;4.70;;;;;;;;;;5032674;28;20619;-72
2021/11/29 16:54:44;;;;;;;8.27;4.47;;;;;;;;;;5046101;28;21169;-73
2021/11/29 16:57:48;;;;;;;7.23;4.73;;;;;;;;;;5039772;28;20941;-72
2021/11/29 17:00:52;;;;;;;31.97;16.23;;;;;;;;;;5032351;28;20653;-73
2021/11/29 17:03:57;;;;;;;54.90;28.70;;;;;;;;;;5036475;28;20933;-72
2021/11/29 17:07:01;;;;;;;7.60;5.80;;;;;;;;;;5042037;28;20681;-72
2021/11/29 17:10:09;;;;;;;9.73;6.50;;;;;;;;;;5053389;28;20579;-73
2021/11/29 17:13:15;;;;;;;23.47;11.90;;;;;;;;;;5035970;28;20588;-72
2021/11/29 17:16:19;;;;;;;35.00;20.70;;;;;;;;;;5052489;28;20586;-73
2021/11/29 17:19:24;;;;;;;19.57;10.70;;;;;;;;;;5048877;28;20594;-73
2021/11/29 17:22:28;;;;;;;13.40;6.33;;;;;;;;;;5054049;28;20642;-72
2021/11/29 17:25:35;;;;;;;16.27;9.80;;;;;;;;;;5035787;28;21083;-72
2021/11/29 17:28:40;;;;;;;13.50;6.10;;;;;;;;;;5036194;28;21151;-72
2021/11/29 17:31:47;;;;;;;7.90;5.37;;;;;;;;;;5040425;28;20654;-72
2021/11/29 17:34:51;;;;;;;6.37;4.80;;;;;;;;;;5026938;28;20623;-72
2021/11/29 17:37:56;;;;;;;8.70;4.93;;;;;;;;;;5051104;28;20579;-72
2021/11/29 17:41:00;;;;;;;8.83;4.97;;;;;;;;;;5045086;28;20662;-72
2021/11/29 17:44:04;;;;;;;9.10;5.23;;;;;;;;;;5034728;28;20552;-72
2021/11/29 17:47:09;;;;;;;8.17;4.30;;;;;;;;;;5035786;28;20547;-72
2021/11/29 17:50:14;;;;;;;8.90;4.47;;;;;;;;;;5035576;28;20540;-72
2021/11/29 17:53:20;;;;;;;7.33;4.60;;;;;;;;;;5038371;28;20583;-72
2021/11/29 17:56:24;;;;;;;6.90;4.50;;;;;;;;;;5043103;28;20949;-72
2021/11/29 17:59:30;;;;;;;5.50;3.87;;;;;;;;;;5036066;28;20532;-72
2021/11/29 18:02:34;;;;;;;6.33;3.90;;;;;;;;;;5046194;28;20639;-72
2021/11/29 18:05:39;;;;;;;7.80;5.20;;;;;;;;;;5054833;28;20582;-71
2021/11/29 18:08:49;;;;;;;9.53;6.20;;;;;;;;;;5055366;28;21078;-72
2021/11/29 18:15:19;;;;;;;14.93;9.93;;;;;;;;;;5033567;28;20556;-72
2021/11/29 18:18:25;;;;;;;7.93;5.10;;;;;;;;;;5023706;28;20599;-72
2021/11/29 18:21:30;;;;;;;10.07;6.40;;;;;;;;;;5045518;28;20661;-73